createdAt,value
2022-10-17T00:00:59.180Z,99.90
2022-10-17T00:03:26.289Z,99.90
2022-10-17T00:05:53.534Z,99.90
2022-10-17T00:08:21.285Z,99.90
2022-10-17T00:10:59.872Z,99.90
2022-10-17T00:13:27.159Z,99.90
2022-10-17T00:15:54.445Z,99.90
2022-10-17T00:18:22.224Z,99.90
2022-10-17T00:20:49.316Z,99.90
2022-10-17T00:23:16.277Z,99.90
2022-10-17T00:25:43.705Z,99.90
2022-10-17T00:28:12.183Z,99.90
2022-10-17T00:30:39.757Z,99.90
2022-10-17T00:33:08.812Z,99.90
2022-10-17T00:35:37.366Z,99.90
2022-10-17T00:38:04.997Z,99.90
2022-10-17T00:40:32.024Z,99.90
2022-10-17T00:42:59.090Z,99.90
2022-10-17T00:45:29.177Z,99.90
2022-10-17T00:48:00.888Z,99.90
2022-10-17T00:50:28.468Z,99.90
2022-10-17T00:53:01.589Z,99.90
2022-10-17T00:55:33.120Z,99.90
2022-10-17T00:58:03.077Z,99.90
2022-10-17T01:00:30.432Z,99.90
2022-10-17T01:02:58.366Z,99.90
2022-10-17T01:05:25.852Z,99.90
2022-10-17T01:07:54.147Z,99.90
2022-10-17T01:13:16.568Z,99.90
2022-10-17T01:15:50.485Z,99.90
2022-10-17T01:18:20.387Z,99.90
2022-10-17T01:21:02.358Z,99.90
2022-10-17T01:23:41.975Z,99.90
2022-10-17T01:26:53.325Z,99.90
2022-10-17T01:29:47.643Z,99.90
2022-10-17T01:32:17.971Z,99.90
2022-10-17T01:35:06.398Z,99.90
2022-10-17T01:37:44.333Z,99.90
2022-10-17T01:40:35.762Z,99.90
2022-10-17T01:43:08.735Z,99.90
2022-10-17T01:46:06.326Z,99.90
2022-10-17T01:48:39.944Z,99.90
2022-10-17T01:51:17.486Z,99.90
2022-10-17T01:53:55.024Z,99.90
2022-10-17T01:56:26.189Z,99.90
2022-10-17T01:59:10.270Z,99.90
2022-10-17T02:01:39.176Z,99.90
2022-10-17T02:04:09.061Z,99.90
2022-10-17T02:06:37.057Z,99.90
2022-10-17T02:09:23.509Z,99.90
2022-10-17T02:12:10.822Z,99.90
2022-10-17T02:14:47.292Z,99.90
2022-10-17T02:17:27.838Z,99.90
2022-10-17T02:20:30.599Z,99.90
2022-10-17T02:23:27.964Z,99.90
2022-10-17T02:26:15.880Z,99.90
2022-10-17T02:28:51.997Z,99.90
2022-10-17T02:31:57.562Z,99.90
2022-10-17T02:34:32.987Z,99.90
2022-10-17T02:37:05.544Z,99.90
2022-10-17T02:39:35.171Z,99.90
2022-10-17T02:42:06.423Z,99.90
2022-10-17T02:44:35.364Z,99.90
2022-10-17T02:47:11.742Z,99.90
2022-10-17T02:49:43.966Z,99.90
2022-10-17T02:52:16.291Z,99.90
2022-10-17T02:54:59.930Z,99.90
2022-10-17T02:57:48.106Z,99.90
2022-10-17T03:00:17.076Z,99.90
2022-10-17T03:02:48.745Z,99.90
2022-10-17T03:05:24.983Z,99.90
2022-10-17T03:07:52.692Z,99.90
2022-10-17T03:10:20.898Z,99.90
2022-10-17T03:12:48.397Z,99.90
2022-10-17T03:15:15.735Z,99.90
2022-10-17T03:17:43.239Z,99.90
2022-10-17T03:20:11.088Z,99.90
2022-10-17T03:22:38.160Z,99.90
2022-10-17T03:25:06.366Z,99.90
2022-10-17T03:27:36.924Z,99.90
2022-10-17T03:30:04.588Z,99.90
2022-10-17T03:32:34.692Z,99.90
2022-10-17T03:35:02.574Z,99.90
2022-10-17T03:37:30.309Z,99.90
2022-10-17T03:39:57.605Z,99.90
2022-10-17T03:42:25.856Z,99.90
2022-10-17T03:44:53.021Z,99.90
2022-10-17T03:47:20.887Z,99.90
2022-10-17T03:49:47.892Z,99.90
2022-10-17T03:52:15.704Z,99.90
2022-10-17T03:54:42.784Z,99.90
2022-10-17T03:57:09.785Z,99.90
2022-10-17T03:59:36.978Z,99.90
2022-10-17T04:02:09.613Z,99.90
2022-10-17T04:04:36.674Z,99.90
2022-10-17T04:07:03.863Z,99.90
2022-10-17T04:09:31.103Z,99.90
2022-10-17T04:12:03.882Z,99.90
2022-10-17T04:14:32.543Z,99.90
2022-10-17T04:17:06.775Z,99.90
2022-10-17T04:19:38.981Z,99.90
2022-10-17T04:22:16.195Z,99.90
2022-10-17T04:24:54.332Z,99.90
2022-10-17T04:27:49.471Z,99.90
2022-10-17T04:30:23.303Z,99.90
2022-10-17T04:32:58.542Z,99.90
2022-10-17T04:35:37.785Z,99.90
2022-10-17T04:38:13.643Z,99.90
2022-10-17T04:40:50.654Z,99.90
2022-10-17T04:43:24.542Z,99.90
2022-10-17T04:45:55.325Z,99.90
2022-10-17T04:48:26.077Z,99.90
2022-10-17T04:50:57.629Z,99.90
2022-10-17T04:53:52.093Z,99.90
2022-10-17T04:56:24.667Z,99.90
2022-10-17T04:59:05.934Z,99.90
2022-10-17T05:01:45.181Z,99.90
2022-10-17T05:04:15.938Z,99.90
2022-10-17T05:06:55.303Z,99.90
2022-10-17T05:09:26.067Z,99.90
2022-10-17T05:12:00.205Z,99.90
2022-10-17T05:14:30.915Z,99.90
2022-10-17T05:17:11.759Z,99.90
2022-10-17T05:19:43.898Z,99.90
2022-10-17T05:22:16.278Z,99.90
2022-10-17T05:24:44.638Z,99.90
2022-10-17T05:27:18.817Z,99.90
2022-10-17T05:29:49.723Z,99.90
2022-10-17T05:32:31.915Z,99.90
2022-10-17T05:35:11.317Z,99.90
2022-10-17T05:37:42.909Z,99.90
2022-10-17T05:40:18.954Z,99.90
2022-10-17T05:42:54.453Z,99.90
2022-10-17T05:45:25.547Z,99.90
2022-10-17T05:47:56.361Z,99.90
2022-10-17T05:50:25.582Z,99.90
2022-10-17T05:53:06.676Z,99.90
2022-10-17T05:55:45.045Z,99.90
2022-10-17T05:58:22.383Z,99.90
2022-10-17T06:01:12.767Z,99.90
2022-10-17T06:03:44.836Z,99.90
2022-10-17T06:06:16.539Z,99.90
2022-10-17T06:08:52.374Z,99.90
2022-10-17T06:11:26.437Z,99.90
2022-10-17T06:14:00.629Z,99.90
2022-10-17T06:16:50.012Z,99.90
2022-10-17T06:19:30.805Z,99.90
2022-10-17T06:21:57.942Z,99.90
2022-10-17T06:24:27.440Z,99.90
2022-10-17T06:26:54.684Z,99.90
2022-10-17T06:29:22.634Z,99.90
2022-10-17T06:31:52.070Z,99.90
2022-10-17T06:34:20.086Z,99.90
2022-10-17T06:36:48.292Z,99.90
2022-10-17T06:39:15.642Z,99.90
2022-10-17T06:41:53.359Z,99.90
2022-10-17T06:44:20.602Z,99.90
2022-10-17T06:47:06.048Z,99.90
2022-10-17T06:49:34.387Z,99.90
2022-10-17T06:52:17.917Z,99.90
2022-10-17T06:55:07.738Z,99.90
2022-10-17T06:57:43.199Z,99.90
2022-10-17T07:00:42.309Z,99.90
2022-10-17T07:03:12.076Z,99.90
2022-10-17T07:05:39.106Z,99.90
2022-10-17T07:08:06.599Z,99.90
2022-10-17T07:10:38.719Z,99.90
2022-10-17T07:13:07.635Z,99.90
2022-10-17T07:15:37.911Z,99.90
2022-10-17T07:18:05.880Z,99.90
2022-10-17T07:20:33.502Z,99.90
2022-10-17T07:23:01.339Z,99.90
2022-10-17T07:25:28.648Z,99.90
2022-10-17T07:28:00.229Z,99.90
2022-10-17T07:30:27.268Z,99.90
2022-10-17T07:33:04.778Z,99.90
2022-10-17T07:35:31.879Z,99.90
2022-10-17T07:37:59.016Z,99.90
2022-10-17T07:40:27.134Z,99.90
2022-10-17T07:42:56.013Z,99.90
2022-10-17T07:45:24.032Z,99.90
2022-10-17T07:47:51.744Z,99.90
2022-10-17T07:50:19.096Z,99.90
2022-10-17T07:52:46.109Z,99.90
2022-10-17T07:55:13.139Z,99.90
2022-10-17T07:57:40.461Z,99.90
2022-10-17T08:00:09.013Z,99.90
2022-10-17T08:02:41.796Z,99.90
2022-10-17T08:05:09.076Z,98.70
2022-10-17T08:07:36.161Z,98.10
2022-10-17T08:10:03.605Z,97.00
2022-10-17T08:12:32.991Z,96.00
2022-10-17T08:15:07.823Z,94.50
2022-10-17T08:17:39.243Z,92.80
2022-10-17T08:20:09.726Z,91.00
2022-10-17T08:22:42.396Z,88.50
2022-10-17T08:25:13.653Z,85.60
2022-10-17T08:27:43.342Z,82.10
2022-10-17T08:30:11.444Z,80.40
2022-10-17T08:32:44.655Z,78.00
2022-10-17T08:35:16.768Z,75.60
2022-10-17T08:37:51.296Z,75.80
2022-10-17T08:40:31.444Z,73.10
2022-10-17T08:43:19.294Z,70.90
2022-10-17T08:45:55.314Z,67.30
2022-10-17T08:48:27.225Z,67.20
2022-10-17T08:51:10.953Z,65.30
2022-10-17T08:53:53.984Z,64.40
2022-10-17T08:56:55.626Z,59.50
2022-10-17T08:59:18.085Z,62.60
2022-10-17T09:01:54.279Z,59.80
2022-10-17T09:04:27.393Z,59.40
2022-10-17T09:07:17.811Z,58.40
2022-10-17T09:10:04.715Z,56.30
2022-10-17T09:12:46.719Z,56.50
2022-10-17T09:15:49.670Z,55.10
2022-10-17T09:18:27.238Z,52.00
2022-10-17T09:20:55.944Z,53.80
2022-10-17T09:23:31.841Z,52.70
2022-10-17T09:26:01.293Z,52.20
2022-10-17T09:28:38.314Z,52.20
2022-10-17T09:31:11.263Z,51.30
2022-10-17T09:33:54.422Z,51.30
2022-10-17T09:36:34.255Z,50.30
2022-10-17T09:39:18.603Z,49.80
2022-10-17T09:41:55.248Z,50.10
2022-10-17T09:44:33.716Z,49.60
2022-10-17T09:47:31.765Z,49.50
2022-10-17T09:50:07.783Z,47.50
2022-10-17T09:52:48.039Z,49.30
2022-10-17T09:55:39.765Z,47.90
2022-10-17T09:58:12.230Z,47.80
2022-10-17T10:00:48.525Z,47.40
2022-10-17T10:03:29.410Z,48.00
2022-10-17T10:06:01.523Z,47.90
2022-10-17T10:08:34.224Z,49.00
2022-10-17T10:11:13.429Z,47.90
2022-10-17T10:13:41.155Z,47.40
2022-10-17T10:16:30.121Z,47.80
2022-10-17T10:18:57.238Z,48.10
2022-10-17T10:21:28.092Z,51.40
2022-10-17T10:24:10.455Z,54.00
2022-10-17T10:26:47.054Z,57.40
2022-10-17T10:29:22.994Z,60.50
2022-10-17T10:31:51.522Z,66.20
2022-10-17T10:34:20.605Z,67.70
2022-10-17T10:36:53.413Z,68.00
2022-10-17T10:39:42.974Z,69.30
2022-10-17T10:42:24.501Z,69.90
2022-10-17T10:44:53.867Z,72.80
2022-10-17T10:47:28.671Z,71.70
2022-10-17T10:50:31.383Z,71.20
2022-10-17T10:53:20.391Z,74.30
2022-10-17T10:55:59.046Z,74.90
2022-10-17T10:58:53.832Z,75.70
2022-10-17T11:01:42.865Z,75.00
2022-10-17T11:04:41.664Z,75.70
2022-10-17T11:07:46.090Z,76.10
2022-10-17T11:10:50.912Z,77.80
2022-10-17T11:13:54.013Z,77.00
2022-10-17T11:16:45.289Z,77.70
2022-10-17T11:19:34.326Z,77.40
2022-10-17T11:22:47.741Z,79.80
2022-10-17T11:25:44.057Z,80.30
2022-10-17T11:28:21.268Z,78.90
2022-10-17T11:31:02.377Z,78.90
2022-10-17T11:33:50.872Z,80.40
2022-10-17T11:36:25.398Z,81.00
2022-10-17T11:39:10.106Z,82.00
2022-10-17T11:41:48.463Z,82.40
2022-10-17T11:44:34.457Z,82.70
2022-10-17T11:47:16.692Z,81.00
2022-10-17T11:49:55.066Z,80.90
2022-10-17T11:52:57.120Z,82.70
2022-10-17T11:55:39.018Z,82.10
2022-10-17T11:58:34.780Z,84.00
2022-10-17T12:01:23.867Z,84.30
2022-10-17T12:04:27.060Z,84.00
2022-10-17T12:07:19.970Z,85.00
2022-10-17T12:09:57.459Z,85.20
2022-10-17T12:12:31.791Z,84.80
2022-10-17T12:15:30.047Z,86.20
2022-10-17T12:18:04.457Z,86.70
2022-10-17T12:20:37.370Z,86.40
2022-10-17T12:23:14.118Z,87.50
2022-10-17T12:26:30.393Z,88.10
2022-10-17T12:29:01.149Z,89.00
2022-10-17T12:31:34.144Z,87.50
2022-10-17T12:34:04.427Z,88.30
2022-10-17T12:36:39.617Z,88.80
2022-10-17T12:39:16.669Z,88.50
2022-10-17T12:41:47.078Z,89.20
2022-10-17T12:44:22.273Z,90.00
2022-10-17T12:47:12.055Z,90.00
2022-10-17T12:49:47.592Z,90.50
2022-10-17T12:52:35.253Z,89.30
2022-10-17T12:55:22.138Z,90.00
2022-10-17T12:58:11.434Z,90.10
2022-10-17T13:01:22.404Z,90.20
2022-10-17T13:03:53.158Z,90.40
2022-10-17T13:06:28.255Z,90.80
2022-10-17T13:09:04.180Z,91.20
2022-10-17T13:11:42.208Z,91.40
2022-10-17T13:14:20.018Z,91.60
2022-10-17T13:16:52.703Z,91.50
2022-10-17T13:19:28.967Z,91.60
2022-10-17T13:22:06.838Z,92.10
2022-10-17T13:24:41.682Z,92.60
2022-10-17T13:27:31.613Z,93.60
2022-10-17T13:30:01.111Z,93.30
2022-10-17T13:32:38.536Z,93.30
2022-10-17T13:35:24.611Z,93.80
2022-10-17T13:38:07.694Z,94.10
2022-10-17T13:40:49.502Z,93.70
2022-10-17T13:43:20.861Z,94.00
2022-10-17T13:45:51.607Z,94.50
2022-10-17T13:48:25.527Z,94.70
2022-10-17T13:51:01.723Z,94.50
2022-10-17T13:53:40.090Z,94.90
2022-10-17T13:56:29.827Z,95.20
2022-10-17T13:59:03.615Z,95.00
2022-10-17T14:01:31.655Z,95.10
2022-10-17T14:04:09.269Z,95.10
2022-10-17T14:06:49.327Z,95.30
2022-10-17T14:09:27.133Z,95.40
2022-10-17T14:12:13.403Z,95.70
2022-10-17T14:15:09.299Z,95.80
2022-10-17T14:17:34.472Z,95.90
2022-10-17T14:20:34.421Z,95.50
2022-10-17T14:23:17.465Z,95.80
2022-10-17T14:25:41.151Z,96.10
2022-10-17T14:28:11.836Z,96.10
2022-10-17T14:30:56.198Z,96.10
2022-10-17T14:33:38.741Z,96.50
2022-10-17T14:36:09.332Z,96.80
2022-10-17T14:38:52.239Z,97.00
2022-10-17T14:41:43.770Z,97.00
2022-10-17T14:44:34.242Z,97.20
2022-10-17T14:47:38.160Z,97.40
2022-10-17T14:50:24.609Z,97.60
2022-10-17T14:53:11.092Z,97.80
2022-10-17T14:55:41.076Z,98.00
2022-10-17T14:58:29.825Z,98.20
2022-10-17T15:01:12.442Z,98.40
2022-10-17T15:03:42.633Z,98.60
2022-10-17T15:06:21.513Z,98.90
2022-10-17T15:08:51.308Z,99.90
2022-10-17T15:11:30.428Z,99.70
2022-10-17T15:14:04.550Z,99.90
2022-10-17T15:16:42.745Z,99.90
2022-10-17T15:19:14.332Z,99.90
2022-10-17T15:21:44.816Z,99.90
2022-10-17T15:24:24.418Z,99.90
2022-10-17T15:26:59.776Z,99.90
2022-10-17T15:29:27.672Z,99.90
2022-10-17T15:31:55.357Z,99.90
2022-10-17T15:34:27.364Z,99.90
2022-10-17T15:36:58.396Z,99.90
2022-10-17T15:39:25.866Z,99.90
2022-10-17T15:42:04.528Z,99.90
2022-10-17T15:44:52.982Z,99.90
2022-10-17T15:47:34.131Z,99.90
2022-10-17T15:50:15.762Z,99.90
2022-10-17T15:53:16.389Z,99.90
2022-10-17T15:55:52.673Z,99.90
2022-10-17T15:58:20.361Z,99.90
2022-10-17T16:00:48.367Z,99.90
2022-10-17T16:03:15.488Z,99.90
2022-10-17T16:05:42.517Z,99.90
2022-10-17T16:08:09.532Z,99.90
2022-10-17T16:10:39.645Z,99.90
2022-10-17T16:13:06.622Z,99.90
2022-10-17T16:15:34.058Z,99.90
2022-10-17T16:18:04.244Z,99.90
2022-10-17T16:20:33.776Z,99.90
2022-10-17T16:23:03.097Z,99.90
2022-10-17T16:25:31.191Z,99.90
2022-10-17T16:27:59.845Z,99.90
2022-10-17T16:30:28.738Z,99.90
2022-10-17T16:32:56.054Z,99.90
2022-10-17T16:35:26.343Z,99.90
2022-10-17T16:37:53.674Z,99.90
2022-10-17T16:40:21.062Z,99.90
2022-10-17T16:42:48.086Z,99.90
2022-10-17T16:45:22.902Z,99.90
2022-10-17T16:47:50.799Z,99.90
2022-10-17T16:50:24.582Z,99.90
2022-10-17T16:53:05.215Z,99.90
2022-10-17T16:55:37.967Z,99.90
2022-10-17T16:58:23.692Z,99.90
2022-10-17T17:00:56.333Z,99.90
2022-10-17T17:03:42.061Z,99.90
2022-10-17T17:06:20.868Z,99.90
2022-10-17T17:08:51.564Z,99.90
2022-10-17T17:11:27.202Z,99.90
2022-10-17T17:14:07.163Z,99.90
2022-10-17T17:16:58.117Z,99.90
2022-10-17T17:19:32.516Z,99.90
2022-10-17T17:22:02.830Z,99.90
2022-10-17T17:24:31.545Z,99.90
2022-10-17T17:27:07.822Z,99.90
2022-10-17T17:29:38.147Z,99.90
2022-10-17T17:32:05.868Z,99.90
2022-10-17T17:34:37.161Z,99.90
2022-10-17T17:37:04.662Z,99.90
2022-10-17T17:39:34.987Z,99.90
2022-10-17T17:42:10.181Z,99.90
2022-10-17T17:44:37.880Z,99.90
2022-10-17T17:47:05.587Z,99.90
2022-10-17T17:49:33.483Z,99.90
2022-10-17T18:06:24.194Z,99.90
2022-10-17T18:08:54.860Z,99.90
2022-10-17T18:11:22.668Z,99.90
2022-10-17T18:14:16.888Z,99.90
2022-10-17T18:16:46.162Z,99.90
2022-10-17T18:19:15.478Z,99.90
2022-10-17T18:21:44.668Z,99.90
2022-10-17T18:24:12.296Z,99.90
2022-10-17T18:26:40.318Z,99.90
2022-10-17T18:29:10.022Z,99.90
2022-10-17T18:31:39.120Z,99.90
2022-10-17T18:34:07.365Z,99.90
2022-10-17T18:36:37.584Z,99.90
2022-10-17T18:39:05.812Z,99.90
2022-10-17T18:41:34.048Z,99.90
2022-10-17T18:44:03.466Z,99.90
2022-10-17T18:46:36.618Z,99.90
2022-10-17T18:49:04.641Z,99.90
2022-10-17T18:51:33.096Z,99.90
2022-10-17T18:54:02.830Z,99.90
2022-10-17T18:56:32.331Z,99.90
2022-10-17T18:58:59.996Z,99.90
2022-10-17T19:01:29.421Z,99.90
2022-10-17T19:03:59.422Z,99.90
2022-10-17T19:06:32.209Z,99.90
2022-10-17T19:09:01.299Z,99.90
2022-10-17T19:11:30.176Z,99.90
2022-10-17T19:13:59.225Z,99.90
2022-10-17T19:16:37.860Z,99.90
2022-10-17T19:19:08.052Z,99.90
2022-10-17T19:21:35.287Z,99.90
2022-10-17T19:24:05.561Z,99.90
2022-10-17T19:26:36.613Z,99.90
2022-10-17T19:29:05.165Z,99.90
2022-10-17T19:31:33.823Z,99.90
2022-10-17T19:34:01.526Z,99.90
2022-10-17T19:36:33.324Z,99.90
2022-10-17T19:39:03.015Z,99.90
2022-10-17T19:41:30.574Z,99.90
2022-10-17T19:43:58.014Z,99.90
2022-10-17T19:46:27.888Z,99.90
2022-10-17T19:48:55.689Z,99.90
2022-10-17T19:51:26.336Z,99.90
2022-10-17T19:53:56.188Z,99.90
2022-10-17T19:56:25.551Z,99.90
2022-10-17T19:58:56.381Z,99.90
2022-10-17T20:01:30.667Z,99.90
2022-10-17T20:03:58.762Z,99.90
2022-10-17T20:06:27.068Z,99.90
2022-10-17T20:08:55.889Z,99.90
2022-10-17T20:11:26.546Z,99.90
2022-10-17T20:13:55.078Z,99.90
2022-10-17T20:16:25.540Z,99.90
2022-10-17T20:18:55.216Z,99.90
2022-10-17T20:21:27.590Z,99.90
2022-10-17T20:23:55.176Z,99.90
2022-10-17T20:26:33.493Z,99.90
2022-10-17T20:29:05.583Z,99.90
2022-10-17T20:31:34.005Z,99.90
2022-10-17T20:34:01.954Z,99.90
2022-10-17T20:36:30.454Z,99.90
2022-10-17T20:38:58.933Z,99.90
2022-10-17T20:41:27.088Z,99.90
2022-10-17T20:43:55.812Z,99.90
2022-10-17T20:46:36.477Z,99.90
2022-10-17T20:49:06.580Z,99.90
2022-10-17T20:51:34.477Z,99.90
2022-10-17T20:54:02.749Z,99.90
2022-10-17T20:56:32.104Z,99.90
2022-10-17T20:59:01.570Z,99.90
2022-10-17T21:01:30.282Z,99.90
2022-10-17T21:04:06.184Z,99.90
2022-10-17T21:06:43.157Z,99.90
2022-10-17T21:09:10.112Z,99.90
2022-10-17T21:11:37.085Z,99.90
2022-10-17T21:14:06.585Z,99.90
2022-10-17T21:16:35.880Z,99.90
2022-10-17T21:19:04.077Z,99.90
2022-10-17T21:21:33.988Z,99.90
2022-10-17T21:24:04.947Z,99.90
2022-10-17T21:26:33.950Z,99.90
2022-10-17T21:29:05.520Z,99.90
2022-10-17T21:31:34.887Z,99.90
2022-10-17T21:34:08.004Z,99.90
2022-10-17T21:36:35.092Z,99.90
2022-10-17T21:39:02.727Z,99.90
2022-10-17T21:41:30.863Z,99.90
2022-10-17T21:44:04.189Z,99.90
2022-10-17T21:46:31.223Z,99.90
2022-10-17T21:49:00.103Z,99.90
2022-10-17T21:51:28.065Z,99.90
2022-10-17T21:53:56.899Z,99.90
2022-10-17T21:56:28.733Z,99.90
2022-10-17T21:58:55.727Z,99.90
2022-10-17T22:01:25.396Z,99.90
2022-10-17T22:03:57.496Z,99.90
2022-10-17T22:06:42.760Z,99.90
2022-10-17T22:09:14.566Z,99.90
2022-10-17T22:11:41.929Z,99.90
2022-10-17T22:14:13.479Z,99.90
2022-10-17T22:16:40.999Z,99.90
2022-10-17T22:19:08.968Z,99.90
2022-10-17T22:21:37.580Z,99.90
2022-10-17T22:24:07.272Z,99.90
2022-10-17T22:26:36.795Z,99.90
2022-10-17T22:29:05.757Z,99.90
2022-10-17T22:31:32.971Z,99.90
2022-10-17T22:33:59.922Z,99.90
2022-10-17T22:36:27.044Z,99.90
2022-10-17T22:38:54.156Z,99.90
2022-10-17T22:41:21.379Z,99.90
2022-10-17T22:43:48.540Z,99.90
2022-10-17T22:46:18.629Z,99.90
2022-10-17T22:48:45.651Z,99.90
2022-10-17T22:51:13.371Z,99.90
2022-10-17T22:53:40.473Z,99.90
2022-10-17T22:56:13.167Z,99.90
2022-10-17T22:58:40.237Z,99.90
2022-10-17T23:01:08.822Z,99.90
2022-10-17T23:03:36.257Z,99.90
2022-10-17T23:06:03.473Z,99.90
2022-10-17T23:08:30.533Z,99.90
2022-10-17T23:10:57.910Z,99.90
2022-10-17T23:13:25.081Z,99.90
2022-10-17T23:15:53.919Z,99.90
2022-10-17T23:18:21.924Z,99.90
2022-10-17T23:20:49.545Z,99.90
2022-10-17T23:23:17.008Z,99.90
2022-10-17T23:25:44.501Z,99.90
2022-10-17T23:28:12.249Z,99.90
2022-10-17T23:30:39.767Z,99.90
2022-10-17T23:33:07.284Z,99.90
2022-10-17T23:35:35.541Z,99.90
2022-10-17T23:38:02.789Z,99.90
2022-10-17T23:40:30.084Z,99.90
2022-10-17T23:42:57.008Z,99.90
2022-10-17T23:45:24.028Z,99.90
2022-10-17T23:47:50.994Z,99.90
2022-10-17T23:50:18.155Z,99.90
2022-10-17T23:52:45.092Z,99.90
2022-10-17T23:55:12.109Z,99.90
2022-10-17T23:57:39.338Z,99.90
